Time;durP1;ratioP1;P1;durP2;ratioP2;P2;SDS_P1;SDS_P2;PMS_P1;PMS_P2;Temp;Humidity;BMP_temperature;BMP_pressure;BME280_temperature;BME280_humidity;BME280_pressure;Samples;Min_cycle;Max_cycle;Signal;HPM_P1;HPM_P2
2023/07/01 00:02:07;;;;;;;7.80;3.10;;;;;;;;;;4971690;28;20769;-68
2023/07/01 00:07:12;;;;;;;4.57;2.25;;;;;;;;;;4963449;28;20220;-69
2023/07/01 00:09:37;;;;;;;4.07;3.05;;;;;;;;;;4969208;28;20247;-69
2023/07/01 00:12:03;;;;;;;5.25;2.78;;;;;;;;;;4964045;28;20211;-70
2023/07/01 00:14:28;;;;;;;6.50;2.72;;;;;;;;;;4977644;28;20188;-72
2023/07/01 00:16:54;;;;;;;5.25;2.80;;;;;;;;;;4951727;28;20197;-68
2023/07/01 00:19:20;;;;;;;8.10;3.17;;;;;;;;;;4953128;28;20180;-69
2023/07/01 00:21:45;;;;;;;6.07;2.90;;;;;;;;;;4946820;28;20210;-69
2023/07/01 00:24:10;;;;;;;4.28;2.40;;;;;;;;;;4962501;28;20572;-70
2023/07/01 00:26:36;;;;;;;7.50;2.97;;;;;;;;;;4946202;28;20567;-69
2023/07/01 00:29:01;;;;;;;5.32;2.42;;;;;;;;;;4947743;28;20584;-69
2023/07/01 00:31:26;;;;;;;5.55;2.70;;;;;;;;;;4947135;28;20261;-69
2023/07/01 00:33:51;;;;;;;6.07;2.88;;;;;;;;;;4945071;28;20184;-69
2023/07/01 00:36:17;;;;;;;7.30;2.58;;;;;;;;;;4952815;28;20212;-69
2023/07/01 00:38:42;;;;;;;7.10;2.78;;;;;;;;;;4954734;28;20708;-70
2023/07/01 00:41:07;;;;;;;4.80;2.60;;;;;;;;;;4951331;28;20470;-70
2023/07/01 00:43:32;;;;;;;6.68;3.15;;;;;;;;;;4946246;28;20180;-70
2023/07/01 00:45:57;;;;;;;5.43;3.30;;;;;;;;;;4943710;28;20205;-70
2023/07/01 00:48:24;;;;;;;5.35;3.17;;;;;;;;;;4969137;28;20176;-69
2023/07/01 00:50:49;;;;;;;4.95;2.95;;;;;;;;;;4953133;28;20187;-70
2023/07/01 00:53:15;;;;;;;5.10;3.60;;;;;;;;;;4948438;28;20594;-69
2023/07/01 00:55:40;;;;;;;8.23;3.40;;;;;;;;;;4948624;28;20694;-69
2023/07/01 00:58:05;;;;;;;6.68;3.33;;;;;;;;;;4944097;28;20612;-70
2023/07/01 01:00:30;;;;;;;3.38;2.72;;;;;;;;;;4942290;28;20656;-69
2023/07/01 01:03:21;;;;;;;7.28;3.05;;;;;;;;;;4950153;28;20632;-70
2023/07/01 01:06:06;;;;;;;8.75;3.00;;;;;;;;;;4951876;29;20221;-70
2023/07/01 01:08:39;;;;;;;5.82;2.75;;;;;;;;;;4948656;28;20189;-70
2023/07/01 01:11:05;;;;;;;5.40;2.67;;;;;;;;;;4949123;28;20301;-69
2023/07/01 01:13:31;;;;;;;5.20;2.83;;;;;;;;;;4949306;28;20810;-70
2023/07/01 01:15:57;;;;;;;4.13;3.00;;;;;;;;;;4952429;28;20197;-69
2023/07/01 01:18:23;;;;;;;4.55;2.80;;;;;;;;;;4949501;28;20572;-68
2023/07/01 01:20:50;;;;;;;4.38;3.03;;;;;;;;;;4953516;28;20212;-69
2023/07/01 01:23:23;;;;;;;6.10;3.55;;;;;;;;;;4950589;28;20264;-68
2023/07/01 01:26:06;;;;;;;6.45;2.78;;;;;;;;;;4949668;28;20209;-70
2023/07/01 01:28:35;;;;;;;6.30;3.05;;;;;;;;;;4950866;28;20177;-70
2023/07/01 01:31:00;;;;;;;6.22;2.50;;;;;;;;;;4952838;28;20206;-70
2023/07/01 01:33:26;;;;;;;7.97;3.22;;;;;;;;;;4959546;28;20650;-70
2023/07/01 01:35:51;;;;;;;4.45;2.75;;;;;;;;;;4956026;28;20205;-70
2023/07/01 01:38:22;;;;;;;4.05;2.63;;;;;;;;;;4956059;28;20277;-71
2023/07/01 01:40:58;;;;;;;4.25;3.35;;;;;;;;;;4951581;28;20232;-71
2023/07/01 01:43:27;;;;;;;4.80;3.22;;;;;;;;;;4949266;28;20180;-69
2023/07/01 01:45:53;;;;;;;7.22;3.45;;;;;;;;;;4954403;28;20259;-70
2023/07/01 01:48:18;;;;;;;4.88;2.83;;;;;;;;;;4963029;28;20173;-69
2023/07/01 01:50:46;;;;;;;5.32;3.92;;;;;;;;;;4954352;28;20718;-69
2023/07/01 01:53:12;;;;;;;5.88;2.95;;;;;;;;;;4955008;29;20177;-70
2023/07/01 01:55:38;;;;;;;8.82;3.53;;;;;;;;;;4955068;28;20260;-70
2023/07/01 01:58:03;;;;;;;5.57;3.42;;;;;;;;;;4949451;28;20169;-69
2023/07/01 02:00:31;;;;;;;5.00;3.03;;;;;;;;;;4954262;28;20202;-71
2023/07/01 02:02:56;;;;;;;5.35;3.10;;;;;;;;;;4955028;28;20173;-71
2023/07/01 02:05:21;;;;;;;8.95;3.55;;;;;;;;;;4953641;28;20211;-70
2023/07/01 02:07:47;;;;;;;6.40;3.55;;;;;;;;;;4955887;28;20181;-69
2023/07/01 02:10:13;;;;;;;8.80;3.83;;;;;;;;;;4950436;28;20169;-69
2023/07/01 02:12:38;;;;;;;4.50;3.00;;;;;;;;;;4951085;29;20169;-69
2023/07/01 02:15:04;;;;;;;3.88;2.80;;;;;;;;;;4955983;28;20208;-69
2023/07/01 02:17:29;;;;;;;5.32;3.00;;;;;;;;;;4948201;29;20681;-70
2023/07/01 02:19:55;;;;;;;6.70;3.33;;;;;;;;;;4953988;28;20182;-69
2023/07/01 02:22:20;;;;;;;6.57;3.67;;;;;;;;;;4953877;28;20227;-70
2023/07/01 02:24:45;;;;;;;6.20;3.78;;;;;;;;;;4950405;28;20268;-69
2023/07/01 02:27:10;;;;;;;6.80;3.45;;;;;;;;;;4950344;29;20265;-70
2023/07/01 02:29:36;;;;;;;6.80;3.35;;;;;;;;;;4953169;28;20216;-70
2023/07/01 02:32:01;;;;;;;6.60;3.25;;;;;;;;;;4949981;29;20264;-69
2023/07/01 02:34:27;;;;;;;16.60;4.15;;;;;;;;;;4952853;28;20255;-69
2023/07/01 02:36:55;;;;;;;5.57;3.28;;;;;;;;;;4953036;29;20623;-70
2023/07/01 02:39:21;;;;;;;7.35;3.70;;;;;;;;;;4956685;28;20181;-70
2023/07/01 02:41:46;;;;;;;7.65;3.42;;;;;;;;;;4953826;28;20279;-69
2023/07/01 02:44:11;;;;;;;6.25;3.50;;;;;;;;;;4954626;29;20192;-71
2023/07/01 02:46:37;;;;;;;5.03;2.92;;;;;;;;;;4952122;28;20205;-70
2023/07/01 02:49:02;;;;;;;6.78;3.40;;;;;;;;;;4958060;28;20191;-70
2023/07/01 02:51:27;;;;;;;8.38;4.03;;;;;;;;;;4943173;29;20188;-67
2023/07/01 02:53:53;;;;;;;4.75;3.20;;;;;;;;;;4953852;28;20277;-68
2023/07/01 02:56:18;;;;;;;16.10;3.85;;;;;;;;;;4951870;28;20204;-70
2023/07/01 02:58:43;;;;;;;5.45;3.33;;;;;;;;;;4955362;29;20188;-69
2023/07/01 03:01:08;;;;;;;5.95;3.00;;;;;;;;;;4947167;28;20227;-69
2023/07/01 03:03:33;;;;;;;7.63;3.67;;;;;;;;;;4950342;29;20178;-69
2023/07/01 03:05:59;;;;;;;6.53;3.55;;;;;;;;;;4949053;29;20300;-68
2023/07/01 03:08:24;;;;;;;6.72;2.90;;;;;;;;;;4954833;28;20220;-68
2023/07/01 03:10:49;;;;;;;11.68;3.65;;;;;;;;;;4950845;28;20655;-68
2023/07/01 03:13:16;;;;;;;4.07;3.15;;;;;;;;;;4957829;28;20189;-68
2023/07/01 03:15:41;;;;;;;6.13;3.60;;;;;;;;;;4955052;29;20298;-68
2023/07/01 03:18:06;;;;;;;4.80;3.65;;;;;;;;;;4953352;29;20264;-70
2023/07/01 03:20:32;;;;;;;9.80;4.10;;;;;;;;;;4953791;28;20284;-69
2023/07/01 03:22:57;;;;;;;6.85;3.70;;;;;;;;;;4949314;29;20182;-68
2023/07/01 03:25:26;;;;;;;11.20;3.90;;;;;;;;;;4952561;29;20212;-68
2023/07/01 03:27:51;;;;;;;5.53;4.05;;;;;;;;;;4951195;28;20227;-69
2023/07/01 03:30:17;;;;;;;5.78;4.53;;;;;;;;;;4950546;29;20193;-69
2023/07/01 03:32:47;;;;;;;7.88;4.55;;;;;;;;;;4947907;29;20207;-68
2023/07/01 03:35:12;;;;;;;8.02;4.63;;;;;;;;;;4950563;28;20706;-68
2023/07/01 03:37:38;;;;;;;9.60;5.25;;;;;;;;;;4948345;28;20273;-68
2023/07/01 03:40:04;;;;;;;8.25;5.35;;;;;;;;;;4961190;28;20226;-68
2023/07/01 03:42:30;;;;;;;9.70;5.90;;;;;;;;;;4948416;29;20247;-69
2023/07/01 03:44:55;;;;;;;7.63;5.15;;;;;;;;;;4947887;29;20460;-70
2023/07/01 03:47:21;;;;;;;9.10;5.57;;;;;;;;;;4959336;28;20177;-70
2023/07/01 03:49:46;;;;;;;7.28;5.68;;;;;;;;;;4952587;28;20217;-69
2023/07/01 03:52:12;;;;;;;8.27;5.47;;;;;;;;;;4953548;28;20193;-70
2023/07/01 03:54:37;;;;;;;10.50;5.53;;;;;;;;;;4949863;28;20184;-70
2023/07/01 03:57:02;;;;;;;8.30;6.18;;;;;;;;;;4953297;28;20196;-69
2023/07/01 03:59:27;;;;;;;15.88;5.75;;;;;;;;;;4955080;28;20181;-69
2023/07/01 04:01:53;;;;;;;11.38;8.27;;;;;;;;;;4940228;28;20197;-69
2023/07/01 04:04:18;;;;;;;8.82;6.55;;;;;;;;;;4955396;28;20211;-69
2023/07/01 04:06:43;;;;;;;7.13;6.40;;;;;;;;;;4953911;28;20940;-68
2023/07/01 04:09:12;;;;;;;7.35;6.28;;;;;;;;;;4951396;29;20289;-69
2023/07/01 04:11:37;;;;;;;11.77;6.40;;;;;;;;;;4948078;28;20237;-68
2023/07/01 04:14:03;;;;;;;8.57;6.45;;;;;;;;;;4951648;28;20279;-68
2023/07/01 04:16:29;;;;;;;9.32;6.78;;;;;;;;;;4953308;28;20212;-69
2023/07/01 04:18:54;;;;;;;9.73;7.15;;;;;;;;;;4944885;28;20655;-70
2023/07/01 04:21:21;;;;;;;8.90;6.75;;;;;;;;;;4949674;28;20207;-69
2023/07/01 04:23:46;;;;;;;8.40;6.53;;;;;;;;;;4952856;28;20320;-69
2023/07/01 04:26:11;;;;;;;7.43;6.60;;;;;;;;;;4952572;28;20291;-69
2023/07/01 04:28:36;;;;;;;9.27;7.40;;;;;;;;;;4951293;28;20185;-69
2023/07/01 04:31:02;;;;;;;11.18;7.35;;;;;;;;;;4950393;29;20189;-68
2023/07/01 04:33:27;;;;;;;11.85;7.65;;;;;;;;;;4951494;28;20200;-69
2023/07/01 04:35:52;;;;;;;9.90;6.93;;;;;;;;;;4952230;29;20193;-68
2023/07/01 04:38:17;;;;;;;11.20;7.35;;;;;;;;;;4952127;29;20247;-69
2023/07/01 04:40:43;;;;;;;10.48;7.20;;;;;;;;;;4952113;28;20208;-69
2023/07/01 04:43:09;;;;;;;9.95;7.18;;;;;;;;;;4951582;28;20177;-69
2023/07/01 04:45:34;;;;;;;7.68;6.88;;;;;;;;;;4949443;29;20200;-70
2023/07/01 04:48:00;;;;;;;11.27;7.20;;;;;;;;;;4952892;29;20570;-69
2023/07/01 04:50:25;;;;;;;10.32;7.00;;;;;;;;;;4949265;28;20209;-70
2023/07/01 04:52:50;;;;;;;8.32;6.95;;;;;;;;;;4950684;28;20216;-69
2023/07/01 04:55:15;;;;;;;14.27;8.50;;;;;;;;;;4944929;28;20683;-69
2023/07/01 04:57:41;;;;;;;8.05;7.28;;;;;;;;;;4949327;28;20231;-69
2023/07/01 05:00:09;;;;;;;8.05;7.25;;;;;;;;;;4950821;28;20213;-69
2023/07/01 05:02:34;;;;;;;11.07;7.93;;;;;;;;;;4953304;28;20176;-68
2023/07/01 05:04:59;;;;;;;16.65;8.77;;;;;;;;;;4951165;28;20208;-68
2023/07/01 05:07:25;;;;;;;11.25;7.90;;;;;;;;;;4957028;29;20173;-69
2023/07/01 05:09:50;;;;;;;11.75;7.38;;;;;;;;;;4955670;29;20185;-69
2023/07/01 05:12:15;;;;;;;8.63;7.47;;;;;;;;;;4956145;28;20188;-68
2023/07/01 05:14:40;;;;;;;10.23;8.32;;;;;;;;;;4955477;28;20217;-68
2023/07/01 05:17:06;;;;;;;9.10;7.70;;;;;;;;;;4954543;28;20200;-71
2023/07/01 05:19:31;;;;;;;10.10;8.25;;;;;;;;;;4950887;28;20201;-68
2023/07/01 05:21:56;;;;;;;13.70;8.68;;;;;;;;;;4949594;28;20217;-70
2023/07/01 05:24:21;;;;;;;10.57;8.82;;;;;;;;;;4954434;28;20532;-69
2023/07/01 05:26:47;;;;;;;10.60;8.57;;;;;;;;;;4955619;29;20350;-70
2023/07/01 05:29:13;;;;;;;7.90;7.10;;;;;;;;;;4954202;28;20214;-69
2023/07/01 05:31:38;;;;;;;13.98;8.02;;;;;;;;;;4953289;28;20670;-69
2023/07/01 05:34:04;;;;;;;10.85;8.43;;;;;;;;;;4954574;28;20666;-70
2023/07/01 05:36:29;;;;;;;8.48;7.57;;;;;;;;;;4965692;28;20707;-69
2023/07/01 05:38:54;;;;;;;11.13;6.70;;;;;;;;;;4953463;28;20594;-69
2023/07/01 05:41:19;;;;;;;9.65;8.02;;;;;;;;;;4953886;28;20255;-69
2023/07/01 05:43:45;;;;;;;9.13;7.63;;;;;;;;;;4967606;28;20172;-68
2023/07/01 05:46:10;;;;;;;8.40;7.60;;;;;;;;;;4951652;28;20530;-69
2023/07/01 05:48:35;;;;;;;7.70;6.97;;;;;;;;;;4960657;28;20173;-69
2023/07/01 05:51:00;;;;;;;7.68;6.93;;;;;;;;;;4949605;29;20624;-69
2023/07/01 05:53:25;;;;;;;9.18;7.15;;;;;;;;;;4953500;28;20710;-69
2023/07/01 05:55:50;;;;;;;7.55;6.30;;;;;;;;;;4955005;28;20209;-69
2023/07/01 05:58:16;;;;;;;9.93;6.38;;;;;;;;;;4954454;28;20244;-69
2023/07/01 06:00:41;;;;;;;6.32;5.72;;;;;;;;;;4950715;28;20204;-69
2023/07/01 06:03:08;;;;;;;6.85;5.82;;;;;;;;;;4950610;28;20181;-69
2023/07/01 06:05:33;;;;;;;7.25;6.53;;;;;;;;;;4969877;23;20256;-67
2023/07/01 06:07:58;;;;;;;7.32;5.35;;;;;;;;;;4993672;28;20262;-67
2023/07/01 06:10:23;;;;;;;7.25;6.53;;;;;;;;;;4990478;28;20192;-67
2023/07/01 06:12:48;;;;;;;7.55;6.75;;;;;;;;;;4989945;28;20183;-67
2023/07/01 06:15:14;;;;;;;6.63;6.03;;;;;;;;;;4987596;28;20194;-67
2023/07/01 06:17:39;;;;;;;7.50;6.80;;;;;;;;;;4971267;28;20271;-68
2023/07/01 06:20:05;;;;;;;7.85;6.50;;;;;;;;;;4976386;28;20177;-68
2023/07/01 06:22:30;;;;;;;7.45;6.75;;;;;;;;;;4972612;28;20308;-68
2023/07/01 06:24:55;;;;;;;7.32;6.53;;;;;;;;;;4972797;28;20263;-69
2023/07/01 06:27:20;;;;;;;6.90;6.25;;;;;;;;;;4973998;28;20207;-68
2023/07/01 06:29:46;;;;;;;7.97;7.10;;;;;;;;;;4974720;28;20176;-68
2023/07/01 06:32:11;;;;;;;7.43;6.65;;;;;;;;;;4967280;28;20625;-68
2023/07/01 06:34:36;;;;;;;6.93;6.22;;;;;;;;;;4972255;28;20631;-68
2023/07/01 06:37:02;;;;;;;8.02;7.32;;;;;;;;;;4973733;28;20646;-68
2023/07/01 06:39:27;;;;;;;9.65;6.05;;;;;;;;;;4970871;28;20183;-68
2023/07/01 06:41:52;;;;;;;8.20;7.18;;;;;;;;;;4972831;28;20199;-68
2023/07/01 06:44:18;;;;;;;7.95;6.70;;;;;;;;;;4972918;28;20315;-67
2023/07/01 06:46:43;;;;;;;8.30;6.20;;;;;;;;;;4971345;28;20280;-67
2023/07/01 06:49:08;;;;;;;9.45;6.70;;;;;;;;;;4969559;28;20180;-67
2023/07/01 06:51:33;;;;;;;7.45;6.57;;;;;;;;;;4971796;28;20192;-67
2023/07/01 06:53:59;;;;;;;7.28;6.57;;;;;;;;;;4977929;28;20188;-67
2023/07/01 06:56:24;;;;;;;8.30;5.90;;;;;;;;;;4973859;28;20286;-68
2023/07/01 06:58:49;;;;;;;7.53;6.50;;;;;;;;;;4972998;28;20191;-67
2023/07/01 07:01:14;;;;;;;8.82;6.47;;;;;;;;;;4962117;28;20203;-67
2023/07/01 07:03:40;;;;;;;7.65;6.95;;;;;;;;;;4967252;28;20504;-67
2023/07/01 07:06:06;;;;;;;7.72;6.57;;;;;;;;;;4968193;28;20216;-67
2023/07/01 07:08:31;;;;;;;7.40;6.63;;;;;;;;;;4966305;28;20190;-67
2023/07/01 07:10:57;;;;;;;6.70;5.93;;;;;;;;;;4967827;28;20184;-67
2023/07/01 07:13:22;;;;;;;8.05;6.50;;;;;;;;;;4965817;28;20550;-67
2023/07/01 07:15:47;;;;;;;7.53;5.90;;;;;;;;;;4973655;28;20192;-67
2023/07/01 07:18:12;;;;;;;8.18;6.28;;;;;;;;;;4972095;28;20254;-67
2023/07/01 07:20:38;;;;;;;6.60;5.88;;;;;;;;;;4965166;28;20284;-67
2023/07/01 07:23:05;;;;;;;8.13;6.00;;;;;;;;;;4972109;28;20263;-68
2023/07/01 07:25:31;;;;;;;6.85;5.88;;;;;;;;;;4969075;28;20188;-67
2023/07/01 07:27:56;;;;;;;8.43;6.07;;;;;;;;;;4973436;28;20248;-67
2023/07/01 07:30:22;;;;;;;8.20;5.90;;;;;;;;;;4972665;28;20213;-67
2023/07/01 07:32:47;;;;;;;5.43;4.70;;;;;;;;;;4967913;28;20204;-68
2023/07/01 07:35:12;;;;;;;7.82;6.30;;;;;;;;;;4971756;28;20647;-67
2023/07/01 07:37:37;;;;;;;7.65;6.30;;;;;;;;;;4973290;28;20219;-67
2023/07/01 07:40:05;;;;;;;6.45;4.88;;;;;;;;;;4963162;28;20173;-67
2023/07/01 07:42:30;;;;;;;6.95;5.30;;;;;;;;;;4967144;28;20232;-67
2023/07/01 07:44:56;;;;;;;5.68;4.82;;;;;;;;;;4979568;28;20262;-67
2023/07/01 07:47:21;;;;;;;7.15;5.45;;;;;;;;;;4968593;28;20737;-67
2023/07/01 07:49:46;;;;;;;5.72;4.80;;;;;;;;;;4970820;28;20177;-67
2023/07/01 07:52:11;;;;;;;6.20;5.60;;;;;;;;;;4972243;28;20184;-67
2023/07/01 07:54:36;;;;;;;4.15;3.70;;;;;;;;;;4970551;28;20226;-68
2023/07/01 07:57:02;;;;;;;5.03;3.63;;;;;;;;;;4972757;28;20218;-68
2023/07/01 07:59:27;;;;;;;4.75;3.95;;;;;;;;;;4969363;28;20191;-69
2023/07/01 08:01:57;;;;;;;4.78;3.72;;;;;;;;;;4966272;28;20222;-69
2023/07/01 08:04:23;;;;;;;4.28;3.15;;;;;;;;;;4970874;28;20219;-68
2023/07/01 08:06:48;;;;;;;4.18;3.03;;;;;;;;;;4969963;28;20299;-69
2023/07/01 08:09:14;;;;;;;5.60;3.22;;;;;;;;;;4969370;28;20180;-69
2023/07/01 08:11:39;;;;;;;3.88;3.00;;;;;;;;;;4971702;28;20642;-68
2023/07/01 08:14:04;;;;;;;3.35;2.95;;;;;;;;;;4970943;28;20616;-69
2023/07/01 08:16:31;;;;;;;2.97;2.67;;;;;;;;;;4972402;28;20196;-69
2023/07/01 08:18:57;;;;;;;3.65;2.90;;;;;;;;;;4972236;28;20531;-69
2023/07/01 08:21:22;;;;;;;3.15;2.85;;;;;;;;;;4971466;28;20268;-69
2023/07/01 08:23:47;;;;;;;3.47;2.53;;;;;;;;;;4967957;28;20555;-68
2023/07/01 08:26:12;;;;;;;2.30;2.10;;;;;;;;;;4971809;28;20690;-68
2023/07/01 08:28:38;;;;;;;3.15;2.08;;;;;;;;;;4970981;28;20172;-68
2023/07/01 08:31:04;;;;;;;3.15;2.85;;;;;;;;;;4969879;28;20176;-68
2023/07/01 08:33:29;;;;;;;4.97;2.50;;;;;;;;;;4963792;28;20184;-69
2023/07/01 08:35:57;;;;;;;2.65;2.45;;;;;;;;;;4969312;28;20206;-69
2023/07/01 08:38:23;;;;;;;2.67;2.47;;;;;;;;;;4968209;28;20187;-68
2023/07/01 08:40:50;;;;;;;2.85;2.65;;;;;;;;;;4970094;28;20208;-69
2023/07/01 08:43:16;;;;;;;3.00;2.70;;;;;;;;;;4965169;28;20259;-67
2023/07/01 08:45:41;;;;;;;3.75;2.90;;;;;;;;;;4973233;28;20300;-67
2023/07/01 08:48:06;;;;;;;3.45;3.05;;;;;;;;;;4970067;28;20188;-67
2023/07/01 08:50:46;;;;;;;2.78;2.58;;;;;;;;;;4956837;28;20602;-67
2023/07/01 08:53:13;;;;;;;4.22;3.35;;;;;;;;;;4970676;28;20183;-67
2023/07/01 08:55:39;;;;;;;3.13;2.67;;;;;;;;;;4970610;28;20204;-67
2023/07/01 08:58:04;;;;;;;3.13;2.70;;;;;;;;;;4970708;28;20176;-66
2023/07/01 09:00:30;;;;;;;3.97;3.40;;;;;;;;;;4975484;28;20191;-66
2023/07/01 09:02:55;;;;;;;3.53;3.22;;;;;;;;;;4975038;28;20180;-66
2023/07/01 09:05:20;;;;;;;3.28;2.97;;;;;;;;;;4970697;28;20233;-67
2023/07/01 09:07:46;;;;;;;3.15;2.85;;;;;;;;;;4985802;28;20536;-67
2023/07/01 09:10:11;;;;;;;3.30;3.00;;;;;;;;;;4969974;28;20314;-67
2023/07/01 09:12:36;;;;;;;3.78;3.38;;;;;;;;;;4971629;28;20549;-67
2023/07/01 09:15:06;;;;;;;4.25;3.05;;;;;;;;;;4968317;28;20708;-66
2023/07/01 09:17:35;;;;;;;3.33;3.03;;;;;;;;;;4971937;28;20203;-67
2023/07/01 09:20:03;;;;;;;3.75;3.40;;;;;;;;;;4966735;28;20568;-68
2023/07/01 09:22:28;;;;;;;3.35;3.03;;;;;;;;;;4969902;28;20235;-67
2023/07/01 09:24:54;;;;;;;4.18;3.58;;;;;;;;;;4971623;28;20180;-67
2023/07/01 09:27:19;;;;;;;3.22;2.92;;;;;;;;;;4971347;28;20279;-67
2023/07/01 09:29:44;;;;;;;3.33;3.03;;;;;;;;;;4968884;28;20185;-67
2023/07/01 09:32:09;;;;;;;4.05;3.65;;;;;;;;;;4966757;28;20176;-67
2023/07/01 09:34:50;;;;;;;3.97;3.35;;;;;;;;;;4964866;28;20195;-67
2023/07/01 09:37:16;;;;;;;3.78;3.38;;;;;;;;;;4967731;28;20590;-67
2023/07/01 09:39:42;;;;;;;4.00;3.30;;;;;;;;;;4969559;28;20202;-67
2023/07/01 09:42:07;;;;;;;3.13;2.83;;;;;;;;;;4973090;28;20686;-67
2023/07/01 09:44:32;;;;;;;3.28;2.75;;;;;;;;;;4969666;28;20173;-67
2023/07/01 09:46:57;;;;;;;3.13;2.83;;;;;;;;;;4969582;28;20203;-67
2023/07/01 09:49:35;;;;;;;3.75;2.47;;;;;;;;;;4975293;28;20180;-67
2023/07/01 09:52:00;;;;;;;3.25;2.88;;;;;;;;;;4971444;28;20192;-67
2023/07/01 09:54:29;;;;;;;3.55;2.97;;;;;;;;;;4958000;28;20184;-68
2023/07/01 09:56:56;;;;;;;3.45;2.70;;;;;;;;;;4964550;28;20207;-69
2023/07/01 09:59:21;;;;;;;3.05;2.60;;;;;;;;;;4965146;28;20183;-67
2023/07/01 10:01:47;;;;;;;2.85;2.42;;;;;;;;;;4972392;28;20286;-67
2023/07/01 10:04:12;;;;;;;2.92;2.45;;;;;;;;;;4969504;28;20173;-68
2023/07/01 10:06:37;;;;;;;2.67;2.42;;;;;;;;;;4965152;28;20602;-67
2023/07/01 10:09:03;;;;;;;2.58;2.38;;;;;;;;;;4975143;28;20184;-67
2023/07/01 10:11:28;;;;;;;3.17;1.80;;;;;;;;;;4973811;28;20185;-67
2023/07/01 10:13:55;;;;;;;2.25;1.90;;;;;;;;;;4974951;28;20176;-67
2023/07/01 10:16:20;;;;;;;1.83;1.58;;;;;;;;;;4974611;28;20670;-69
2023/07/01 10:18:46;;;;;;;2.33;1.65;;;;;;;;;;4973891;28;20176;-68
2023/07/01 10:21:30;;;;;;;3.08;1.40;;;;;;;;;;4970699;28;20215;-69
2023/07/01 10:23:56;;;;;;;1.20;1.02;;;;;;;;;;4966807;28;20944;-68
2023/07/01 10:26:40;;;;;;;3.60;2.33;;;;;;;;;;4967046;28;20558;-68
2023/07/01 10:29:24;;;;;;;3.42;2.70;;;;;;;;;;4971406;28;20177;-68
2023/07/01 10:32:08;;;;;;;5.38;3.03;;;;;;;;;;4968968;28;20610;-68
2023/07/01 10:34:52;;;;;;;3.83;3.03;;;;;;;;;;4973471;28;20255;-68
2023/07/01 10:37:17;;;;;;;4.55;3.20;;;;;;;;;;4972751;28;20235;-68
2023/07/01 10:39:42;;;;;;;3.63;3.08;;;;;;;;;;4974186;28;20208;-68
2023/07/01 10:42:10;;;;;;;5.30;3.00;;;;;;;;;;4972914;28;20582;-68
2023/07/01 10:44:35;;;;;;;3.83;3.38;;;;;;;;;;4958739;28;20185;-68
2023/07/01 10:47:14;;;;;;;6.30;3.10;;;;;;;;;;4973208;28;20631;-68
2023/07/01 10:49:59;;;;;;;5.68;3.28;;;;;;;;;;4973432;28;20186;-68
2023/07/01 10:52:24;;;;;;;4.13;3.60;;;;;;;;;;4973629;28;20244;-69
2023/07/01 10:54:51;;;;;;;6.40;4.75;;;;;;;;;;4972929;28;20604;-67
2023/07/01 10:57:18;;;;;;;6.13;3.92;;;;;;;;;;4972952;28;20693;-67
2023/07/01 10:59:43;;;;;;;5.22;3.85;;;;;;;;;;4964307;28;20717;-68
2023/07/01 11:02:09;;;;;;;4.53;3.67;;;;;;;;;;4969604;28;20319;-68
2023/07/01 11:04:53;;;;;;;6.03;4.70;;;;;;;;;;4974075;28;20172;-68
2023/07/01 11:07:25;;;;;;;5.65;4.40;;;;;;;;;;4973832;28;20212;-68
2023/07/01 11:09:51;;;;;;;6.45;3.22;;;;;;;;;;4971464;28;20180;-67
2023/07/01 11:12:17;;;;;;;5.47;4.03;;;;;;;;;;4971452;28;20181;-68
2023/07/01 11:14:42;;;;;;;5.57;3.15;;;;;;;;;;4972086;28;20178;-68
2023/07/01 11:17:17;;;;;;;3.92;3.38;;;;;;;;;;4965310;28;20205;-67
2023/07/01 11:19:44;;;;;;;5.38;3.85;;;;;;;;;;4966062;28;20658;-67
2023/07/01 11:22:18;;;;;;;7.35;4.15;;;;;;;;;;4972638;28;20678;-68
2023/07/01 11:24:43;;;;;;;14.40;5.43;;;;;;;;;;4973930;28;20219;-69
2023/07/01 11:27:09;;;;;;;9.75;3.80;;;;;;;;;;4973300;28;20204;-68
2023/07/01 11:29:40;;;;;;;4.72;3.65;;;;;;;;;;4971295;28;20180;-68
2023/07/01 11:32:06;;;;;;;5.07;4.13;;;;;;;;;;4967635;28;20255;-68
2023/07/01 11:34:32;;;;;;;6.68;4.45;;;;;;;;;;4977578;28;20180;-68
2023/07/01 11:36:58;;;;;;;6.50;4.65;;;;;;;;;;4984473;28;20203;-68
2023/07/01 11:39:24;;;;;;;5.72;3.80;;;;;;;;;;4985435;28;20195;-68
2023/07/01 11:41:56;;;;;;;6.90;4.28;;;;;;;;;;4983899;28;20204;-68
2023/07/01 11:44:22;;;;;;;7.53;4.80;;;;;;;;;;4982838;28;20248;-68
2023/07/01 11:46:48;;;;;;;11.32;5.22;;;;;;;;;;4980478;28;20224;-68
2023/07/01 11:49:23;;;;;;;5.30;4.07;;;;;;;;;;4984793;28;20192;-68
2023/07/01 11:51:49;;;;;;;5.70;4.68;;;;;;;;;;4976825;28;20183;-68
2023/07/01 11:54:17;;;;;;;5.97;4.70;;;;;;;;;;4978564;28;20212;-68
2023/07/01 11:56:43;;;;;;;6.45;4.47;;;;;;;;;;4977381;28;20196;-68
2023/07/01 11:59:08;;;;;;;9.75;4.43;;;;;;;;;;4975100;28;20183;-68
2023/07/01 12:01:36;;;;;;;6.38;4.70;;;;;;;;;;4977073;28;20593;-69
2023/07/01 12:04:12;;;;;;;5.45;4.57;;;;;;;;;;4976407;28;20319;-68
2023/07/01 12:06:37;;;;;;;9.65;5.70;;;;;;;;;;4989815;23;20223;-72
2023/07/01 12:09:07;;;;;;;14.13;6.22;;;;;;;;;;4980019;28;20559;-72
2023/07/01 12:11:42;;;;;;;8.38;4.90;;;;;;;;;;4982429;28;20187;-72
2023/07/01 12:14:17;;;;;;;7.85;5.18;;;;;;;;;;4985751;28;20191;-71
2023/07/01 12:16:43;;;;;;;8.23;5.68;;;;;;;;;;4982285;28;20196;-72
2023/07/01 12:19:08;;;;;;;6.28;5.15;;;;;;;;;;4979784;28;20193;-72
2023/07/01 12:21:33;;;;;;;8.65;5.53;;;;;;;;;;4990761;28;20234;-72
2023/07/01 12:23:58;;;;;;;9.45;5.28;;;;;;;;;;4987277;28;20183;-71
2023/07/01 12:26:24;;;;;;;7.95;4.25;;;;;;;;;;4982092;28;20196;-72
2023/07/01 12:28:49;;;;;;;5.28;4.28;;;;;;;;;;4986629;28;20176;-71
2023/07/01 12:31:14;;;;;;;7.03;4.20;;;;;;;;;;4987221;28;20195;-71
2023/07/01 12:33:39;;;;;;;6.90;4.20;;;;;;;;;;4991155;28;20167;-72
2023/07/01 12:36:06;;;;;;;8.63;4.25;;;;;;;;;;4986455;28;20195;-70
2023/07/01 12:38:31;;;;;;;7.97;4.05;;;;;;;;;;4989532;28;20187;-71
2023/07/01 12:40:57;;;;;;;4.35;3.90;;;;;;;;;;4989256;28;20195;-72
2023/07/01 12:43:25;;;;;;;6.68;4.68;;;;;;;;;;4982221;28;20265;-71
2023/07/01 12:45:50;;;;;;;5.70;4.50;;;;;;;;;;5006211;28;20203;-71
2023/07/01 12:48:15;;;;;;;5.82;4.25;;;;;;;;;;4984631;28;20194;-71
2023/07/01 12:50:41;;;;;;;5.15;3.83;;;;;;;;;;4989225;28;20178;-70
2023/07/01 12:53:06;;;;;;;8.32;3.92;;;;;;;;;;4986333;28;20199;-70
2023/07/01 12:55:31;;;;;;;6.57;3.75;;;;;;;;;;4984993;28;20168;-70
2023/07/01 12:57:56;;;;;;;4.45;3.25;;;;;;;;;;4980328;28;20259;-70
2023/07/01 13:00:22;;;;;;;5.15;3.15;;;;;;;;;;4977858;28;20188;-72
2023/07/01 13:02:47;;;;;;;6.05;3.13;;;;;;;;;;4985036;28;20213;-71
2023/07/01 13:05:14;;;;;;;5.65;3.13;;;;;;;;;;4986795;28;20175;-71
2023/07/01 13:07:39;;;;;;;5.72;3.60;;;;;;;;;;4980277;28;20208;-71
2023/07/01 13:10:05;;;;;;;6.03;3.55;;;;;;;;;;4991154;28;20258;-71
2023/07/01 13:12:30;;;;;;;5.70;3.22;;;;;;;;;;4985805;28;20524;-70
2023/07/01 13:14:56;;;;;;;4.53;3.22;;;;;;;;;;4983453;28;20172;-70
2023/07/01 13:17:31;;;;;;;8.35;3.72;;;;;;;;;;4981419;28;20211;-70
2023/07/01 13:19:56;;;;;;;4.90;2.92;;;;;;;;;;4991271;28;20179;-70
2023/07/01 13:22:21;;;;;;;5.70;3.33;;;;;;;;;;4991875;28;20574;-70
2023/07/01 13:24:47;;;;;;;4.00;2.70;;;;;;;;;;4989584;28;20642;-70
2023/07/01 13:27:14;;;;;;;3.50;2.60;;;;;;;;;;4982401;28;20671;-70
2023/07/01 13:29:39;;;;;;;2.53;2.10;;;;;;;;;;4991865;28;20186;-69
2023/07/01 13:32:04;;;;;;;2.40;1.80;;;;;;;;;;4991573;28;20184;-70
2023/07/01 13:34:31;;;;;;;1.95;1.40;;;;;;;;;;4983214;28;20180;-70
2023/07/01 13:36:56;;;;;;;1.90;1.70;;;;;;;;;;4989265;28;20195;-70
2023/07/01 13:39:42;;;;;;;3.72;1.83;;;;;;;;;;4983221;28;20242;-70
2023/07/01 13:42:08;;;;;;;2.20;1.70;;;;;;;;;;4992305;28;20636;-70
2023/07/01 13:44:36;;;;;;;3.45;2.20;;;;;;;;;;4993997;28;20325;-69
2023/07/01 13:47:01;;;;;;;3.83;2.35;;;;;;;;;;4986019;28;20223;-70
2023/07/01 13:49:28;;;;;;;3.10;2.60;;;;;;;;;;4991005;28;20649;-70
2023/07/01 13:51:54;;;;;;;2.95;2.63;;;;;;;;;;4992959;28;20175;-70
2023/07/01 13:54:22;;;;;;;4.35;3.30;;;;;;;;;;4986573;28;20186;-70
2023/07/01 13:56:47;;;;;;;4.90;2.80;;;;;;;;;;4984675;28;20562;-70
2023/07/01 13:59:14;;;;;;;4.32;3.08;;;;;;;;;;4985844;28;20269;-69
2023/07/01 14:01:39;;;;;;;4.47;3.90;;;;;;;;;;4992900;28;20661;-70
2023/07/01 14:04:04;;;;;;;4.95;3.83;;;;;;;;;;4990730;28;20178;-70
2023/07/01 14:06:30;;;;;;;5.20;3.78;;;;;;;;;;4989842;28;20204;-70
2023/07/01 14:08:56;;;;;;;6.38;4.20;;;;;;;;;;5000334;28;20552;-70
2023/07/01 14:11:26;;;;;;;5.93;3.97;;;;;;;;;;4989197;28;20175;-69
2023/07/01 14:13:53;;;;;;;8.93;4.15;;;;;;;;;;4983472;28;20194;-70
2023/07/01 14:16:19;;;;;;;5.70;3.80;;;;;;;;;;4988126;28;20302;-70
2023/07/01 14:18:45;;;;;;;5.18;4.03;;;;;;;;;;4992832;28;20259;-70
2023/07/01 14:21:12;;;;;;;8.15;3.45;;;;;;;;;;4987485;28;20203;-70
2023/07/01 14:23:38;;;;;;;6.03;3.33;;;;;;;;;;4989524;28;20661;-70
2023/07/01 14:26:07;;;;;;;4.30;3.25;;;;;;;;;;4993037;28;20203;-70
2023/07/01 14:28:32;;;;;;;4.93;3.08;;;;;;;;;;4985760;28;20634;-70
2023/07/01 14:30:58;;;;;;;6.35;3.85;;;;;;;;;;4979576;28;20396;-70
2023/07/01 14:33:23;;;;;;;5.25;3.97;;;;;;;;;;4989788;28;20184;-69
2023/07/01 14:35:48;;;;;;;4.80;3.78;;;;;;;;;;4993666;28;20203;-69
2023/07/01 14:38:15;;;;;;;3.80;2.85;;;;;;;;;;4990364;28;20179;-69
2023/07/01 14:40:40;;;;;;;5.80;3.22;;;;;;;;;;4983507;28;20181;-70
2023/07/01 14:43:06;;;;;;;3.85;3.03;;;;;;;;;;4988030;28;20187;-69